Time;durP1;ratioP1;P1;durP2;ratioP2;P2;SDS_P1;SDS_P2;PMS_P1;PMS_P2;Temp;Humidity;BMP_temperature;BMP_pressure;BME280_temperature;BME280_humidity;BME280_pressure;Samples;Min_cycle;Max_cycle;Signal;HPM_P1;HPM_P2
2022/10/14 00:01:38;;;;;;;18.10;9.18;;;;;;;7.93;65.72;100447.16;5072001;28;20093;-91
2022/10/14 00:04:04;;;;;;;23.83;9.18;;;;;;;7.91;66.02;100452.91;5079351;28;20039;-89
2022/10/14 00:06:32;;;;;;;16.38;8.05;;;;;;;7.76;66.12;100420.97;5092203;28;20055;-91
2022/10/14 00:09:00;;;;;;;21.02;8.77;;;;;;;7.48;65.69;100389.59;5075173;28;20044;-91
2022/10/14 00:11:30;;;;;;;17.58;8.40;;;;;;;7.81;65.78;100433.78;5058841;28;20079;-89
2022/10/14 00:13:58;;;;;;;20.33;8.48;;;;;;;7.91;65.80;100430.28;5086009;27;20094;-90
2022/10/14 00:16:28;;;;;;;16.45;8.50;;;;;;;7.98;65.76;100448.00;5104368;27;20073;-90
2022/10/14 00:18:55;;;;;;;15.75;8.48;;;;;;;7.82;65.55;100421.81;5132229;27;20087;-89
2022/10/14 00:21:21;;;;;;;;;;;;;;;8.10;65.99;100464.09;5101078;28;20049;-90
2022/10/14 00:23:48;;;;;;;15.68;8.07;;;;;;;7.73;65.49;100426.94;5091543;28;20014;-89
2022/10/14 00:26:27;;;;;;;21.23;8.40;;;;;;;7.77;65.30;100421.78;5114304;27;20032;-90
2022/10/14 00:28:54;;;;;;;21.33;8.15;;;;;;;7.97;65.96;100461.88;5130797;27;20075;-88
2022/10/14 00:31:22;;;;;;;17.60;9.02;;;;;;;7.43;66.15;100381.41;5113787;27;20031;-90
2022/10/14 00:33:49;;;;;;;21.58;9.50;;;;;;;7.75;65.80;100448.47;5104823;27;20047;-89
2022/10/14 00:36:18;;;;;;;24.27;8.23;;;;;;;7.57;65.85;100419.00;5119647;27;20039;-89
2022/10/14 00:38:44;;;;;;;15.18;8.82;;;;;;;7.84;66.25;100468.63;5095705;27;20061;-90
2022/10/14 00:41:17;;;;;;;25.37;9.27;;;;;;;7.90;65.96;100474.94;5074761;28;20040;-90
2022/10/14 00:44:04;;;;;;;22.98;9.18;;;;;;;7.86;66.08;100462.94;5095723;28;20289;-92
2022/10/14 00:46:43;;;;;;;24.88;9.18;;;;;;;7.60;66.43;100448.41;5094603;28;20059;-93
2022/10/14 00:49:15;;;;;;;24.33;10.63;;;;;;;7.62;66.64;100438.09;5078917;28;20175;-89
2022/10/14 00:51:54;;;;;;;20.13;9.00;;;;;;;7.56;66.45;100417.38;5078743;28;20031;-89
2022/10/14 00:54:24;;;;;;;19.83;9.95;;;;;;;7.56;66.16;100428.25;5091341;28;20036;-91
2022/10/14 00:56:51;;;;;;;17.15;9.10;;;;;;;7.66;66.52;100459.03;5075857;28;20094;-89
2022/10/14 00:59:18;;;;;;;23.52;10.32;;;;;;;7.66;66.76;100461.75;5115024;27;20046;-89
2022/10/14 01:01:44;;;;;;;21.03;10.10;;;;;;;7.46;66.79;100418.97;5098531;28;20035;-90
2022/10/14 01:04:10;;;;;;;20.23;10.60;;;;;;;7.68;66.65;100459.59;5113079;28;20339;-90
2022/10/14 01:06:52;;;;;;;21.02;10.48;;;;;;;7.54;66.83;100442.94;5111598;28;20508;-90
2022/10/14 01:09:47;;;;;;;29.67;10.90;;;;;;;7.77;66.23;100468.88;5111353;28;20074;-90
2022/10/14 01:12:32;;;;;;;23.23;11.68;;;;;;;7.64;66.38;100455.75;5077833;28;20088;-89
2022/10/14 01:15:19;;;;;;;21.95;11.38;;;;;;;7.74;66.61;100474.03;5071658;28;20059;-92
2022/10/14 01:17:50;;;;;;;28.05;12.35;;;;;;;7.75;66.48;100472.97;5054725;28;20044;-89
2022/10/14 01:20:34;;;;;;;24.65;12.07;;;;;;;7.76;66.24;100467.25;5054227;28;20536;-93
2022/10/14 01:23:06;;;;;;;28.10;14.60;;;;;;;7.70;66.31;100476.47;5056250;28;20651;-92
2022/10/14 01:25:56;;;;;;;29.90;12.20;;;;;;;7.32;66.39;100406.09;5071896;28;20072;-90
2022/10/14 01:28:42;;;;;;;23.58;12.20;;;;;;;7.42;66.30;100426.00;5071019;28;20036;-88
2022/10/14 01:31:23;;;;;;;30.40;13.00;;;;;;;7.40;66.88;100419.19;5057500;28;20125;-89
2022/10/14 01:33:54;;;;;;;23.40;13.07;;;;;;;7.34;66.54;100425.69;5063110;28;20113;-88
2022/10/14 01:36:37;;;;;;;28.77;12.95;;;;;;;7.17;66.59;100402.22;5076046;28;20040;-89
2022/10/14 01:39:28;;;;;;;27.98;13.35;;;;;;;7.26;66.55;100402.53;5056151;28;20041;-89
2022/10/14 01:42:06;;;;;;;26.55;13.23;;;;;;;7.55;66.14;100422.00;5066044;28;20094;-89
2022/10/14 01:44:38;;;;;;;34.13;13.75;;;;;;;7.64;66.49;100458.47;5054768;28;20036;-90
2022/10/14 01:47:11;;;;;;;27.02;13.70;;;;;;;7.48;65.85;100426.84;5056078;28;20498;-89
2022/10/14 01:50:01;;;;;;;27.38;12.80;;;;;;;7.51;65.87;100409.97;5054047;28;20040;-91
2022/10/14 01:52:39;;;;;;;31.77;13.77;;;;;;;7.74;66.06;100444.91;5070572;28;20037;-89
2022/10/14 01:55:11;;;;;;;22.60;12.73;;;;;;;7.64;65.57;100419.56;5054202;28;20040;-91
2022/10/14 01:57:40;;;;;;;31.70;13.45;;;;;;;7.59;66.06;100428.53;5042674;28;20036;-89
2022/10/14 02:00:08;;;;;;;23.23;12.75;;;;;;;7.64;66.43;100430.44;5058855;28;20083;-92
2022/10/14 02:02:40;;;;;;;25.05;13.07;;;;;;;7.82;65.58;100461.84;5089107;28;20040;-89
2022/10/14 02:05:46;;;;;;;26.60;13.05;;;;;;;7.76;65.99;100461.81;5053342;28;20047;-89
2022/10/14 02:08:29;;;;;;;28.10;12.70;;;;;;;7.56;66.64;100444.59;5086885;28;20052;-90
2022/10/14 02:10:58;;;;;;;23.85;12.90;;;;;;;7.73;66.42;100462.34;5043338;28;20539;-91
2022/10/14 02:14:03;;;;;;;28.92;13.13;;;;;;;7.39;66.71;100406.69;5069937;28;20078;-88
2022/10/14 02:16:43;;;;;;;28.42;13.25;;;;;;;7.76;66.27;100464.53;5097814;28;20041;-90
2022/10/14 02:19:16;;;;;;;24.67;12.35;;;;;;;7.57;66.95;100438.84;5088399;28;20040;-88
2022/10/14 02:22:23;;;;;;;29.98;13.05;;;;;;;7.47;66.87;100422.50;5073456;28;20482;-90
2022/10/14 02:25:28;;;;;;;22.05;12.63;;;;;;;7.56;66.62;100439.13;5087636;28;20078;-89
2022/10/14 02:27:57;;;;;;;22.25;11.55;;;;;;;7.49;66.44;100434.75;5077369;28;20036;-90
2022/10/14 02:30:23;;;;;;;27.27;11.73;;;;;;;7.06;66.94;100393.19;5060221;28;20031;-94
2022/10/14 02:32:58;;;;;;;21.77;11.98;;;;;;;7.44;67.28;100458.38;5070448;28;20173;-88
2022/10/14 02:35:29;;;;;;;24.25;12.25;;;;;;;7.17;67.18;100428.59;5078335;28;20065;-89
2022/10/14 02:37:57;;;;;;;25.50;13.13;;;;;;;7.21;67.51;100421.53;5060753;28;20043;-88
2022/10/14 02:40:31;;;;;;;25.90;11.90;;;;;;;6.95;67.64;100399.63;5059992;28;20558;-92
2022/10/14 02:42:58;;;;;;;24.88;11.77;;;;;;;6.98;67.85;100406.44;5060496;28;20063;-89
2022/10/14 02:45:28;;;;;;;29.58;13.48;;;;;;;6.98;67.86;100401.81;5052744;28;20038;-88
2022/10/14 02:47:54;;;;;;;25.73;12.35;;;;;;;7.13;68.05;100431.03;5081036;28;20528;-91
2022/10/14 02:50:21;;;;;;;27.25;12.93;;;;;;;6.82;67.74;100392.78;5076390;28;20034;-92
2022/10/14 02:52:47;;;;;;;28.73;11.73;;;;;;;7.12;67.63;100428.53;5076570;28;20138;-90
2022/10/14 02:55:13;;;;;;;24.17;12.40;;;;;;;7.17;67.84;100443.00;5076176;28;20043;-91
2022/10/14 02:57:39;;;;;;;23.10;12.73;;;;;;;6.70;67.97;100372.28;5060649;28;20046;-89
2022/10/14 03:00:06;;;;;;;28.80;12.50;;;;;;;7.07;68.07;100432.06;5061174;28;20036;-91
2022/10/14 03:02:34;;;;;;;27.45;13.63;;;;;;;7.17;68.28;100451.16;5059830;28;20639;-94
2022/10/14 03:05:01;;;;;;;;;;;;;;;7.15;68.40;100466.09;5075395;28;20036;-93
2022/10/14 03:07:30;;;;;;;35.25;12.63;;;;;;;6.86;68.38;100428.41;5060688;28;19920;-91
2022/10/14 03:10:01;;;;;;;36.10;12.90;;;;;;;6.84;68.31;100438.69;5056816;28;20037;-89
2022/10/14 03:12:32;;;;;;;28.63;11.98;;;;;;;6.77;68.76;100429.97;5052173;28;20044;-89
2022/10/14 03:14:58;;;;;;;34.33;13.45;;;;;;;6.86;68.97;100457.47;5113672;28;20047;-90
2022/10/14 03:17:26;;;;;;;34.17;12.52;;;;;;;6.46;69.38;100404.44;5078664;27;20061;-91
2022/10/14 03:19:55;;;;;;;27.58;12.38;;;;;;;6.85;69.26;100464.78;5100691;27;20039;-92
2022/10/14 03:22:25;;;;;;;27.38;12.48;;;;;;;6.38;69.61;100408.44;5081379;28;20416;-93
2022/10/14 03:24:53;;;;;;;26.23;12.60;;;;;;;6.61;69.85;100442.59;5096298;28;20043;-91
2022/10/14 03:27:39;;;;;;;25.48;12.27;;;;;;;6.37;69.75;100403.28;5101646;27;20065;-91
2022/10/14 03:30:10;;;;;;;36.40;13.27;;;;;;;6.23;69.65;100389.31;5083588;27;20046;-93
2022/10/14 03:32:48;;;;;;;35.95;12.75;;;;;;;6.21;69.46;100396.88;5084356;27;20035;-92
2022/10/14 03:35:52;;;;;;;29.38;13.60;;;;;;;6.19;69.78;100408.00;5070652;28;20040;-90
2022/10/14 03:38:25;;;;;;;33.40;13.15;;;;;;;6.48;69.61;100464.75;5052751;28;20037;-93
2022/10/14 03:40:52;;;;;;;26.83;13.85;;;;;;;5.96;69.68;100390.13;5054016;28;20083;-92
2022/10/14 03:43:18;;;;;;;27.30;12.52;;;;;;;5.96;69.78;100390.13;5054691;28;20048;-91
2022/10/14 03:45:54;;;;;;;27.95;11.95;;;;;;;6.11;69.53;100439.13;5038515;28;20032;-90
2022/10/14 03:48:22;;;;;;;42.65;13.63;;;;;;;6.23;70.13;100455.28;5053804;28;20045;-90
2022/10/14 03:50:49;;;;;;;31.20;14.43;;;;;;;5.94;70.66;100429.47;5070540;28;20036;-90
2022/10/14 03:53:17;;;;;;;34.55;15.93;;;;;;;5.85;70.93;100416.28;5070072;28;20061;-90
2022/10/14 03:55:44;;;;;;;36.55;15.55;;;;;;;5.82;70.71;100427.66;5047679;28;20111;-94
2022/10/14 03:58:12;;;;;;;;;;;;;;;6.02;70.19;100450.72;5051185;28;20049;-89
2022/10/14 04:00:45;;;;;;;38.35;15.25;;;;;;;5.91;70.44;100462.50;5033967;28;20447;-94
2022/10/14 04:03:26;;;;;;;27.85;13.55;;;;;;;5.38;70.76;100378.88;5049002;28;20090;-92
2022/10/14 04:05:54;;;;;;;29.17;13.50;;;;;;;5.67;69.99;100429.41;5071042;28;20045;-92
2022/10/14 04:08:23;;;;;;;37.58;13.90;;;;;;;5.37;70.03;100387.25;5037588;28;20044;-91
2022/10/14 04:10:55;;;;;;;46.17;15.35;;;;;;;5.59;70.18;100427.94;5018283;28;20102;-92
2022/10/14 04:13:22;;;;;;;45.67;16.20;;;;;;;5.29;70.85;100403.97;5031817;28;20052;-90
2022/10/14 04:15:49;;;;;;;43.42;17.65;;;;;;;4.94;71.88;100350.94;5053298;28;20734;-89
2022/10/14 04:18:23;;;;;;;40.67;16.88;;;;;;;5.52;71.92;100432.72;5071236;28;20059;-91
2022/10/14 04:20:51;;;;;;;36.97;14.90;;;;;;;5.39;72.08;100410.31;5054535;28;20132;-88
2022/10/14 04:23:21;;;;;;;42.22;15.48;;;;;;;5.72;71.71;100451.97;5036574;28;20089;-91
2022/10/14 04:25:52;;;;;;;40.10;15.02;;;;;;;5.31;71.48;100394.50;5053669;28;20549;-91
2022/10/14 04:28:18;;;;;;;39.53;17.35;;;;;;;5.67;70.31;100440.25;5020442;28;20510;-90
2022/10/14 04:30:56;;;;;;;44.95;18.45;;;;;;;5.53;70.23;100420.78;5050124;28;20059;-93
2022/10/14 04:33:43;;;;;;;49.95;17.00;;;;;;;5.70;70.11;100450.59;5065114;28;20044;-95
2022/10/14 04:40:19;;;;;;;37.83;14.32;;;;;;;5.36;71.05;100440.69;4997142;28;20101;-92
2022/10/14 04:42:46;;;;;;;42.70;15.82;;;;;;;5.12;71.32;100404.00;4994248;28;20042;-93
2022/10/14 04:45:24;;;;;;;45.13;15.40;;;;;;;5.27;71.69;100417.78;4996580;28;20042;-93
2022/10/14 04:47:56;;;;;;;50.72;17.33;;;;;;;5.11;71.60;100396.94;4994949;28;20050;-93
2022/10/14 04:50:23;;;;;;;43.97;16.30;;;;;;;5.37;71.10;100425.22;4996018;28;20041;-93
2022/10/14 04:53:09;;;;;;;38.25;15.50;;;;;;;4.77;70.23;100334.72;4995939;28;20050;-96
2022/10/14 04:55:37;;;;;;;42.20;16.92;;;;;;;5.21;71.31;100404.41;4998516;28;20034;-95
2022/10/14 04:58:03;;;;;;;48.70;16.60;;;;;;;5.08;71.71;100386.59;5013778;28;20042;-94
2022/10/14 05:00:36;;;;;;;35.17;15.52;;;;;;;5.18;72.08;100397.59;5014387;28;20041;-93
2022/10/14 05:03:18;;;;;;;46.85;16.15;;;;;;;5.51;72.29;100431.09;5029597;28;20073;-93
2022/10/14 05:05:45;;;;;;;45.83;15.32;;;;;;;5.13;72.28;100354.13;5013833;28;20066;-93
2022/10/14 05:08:31;;;;;;;;;;;;;;;5.84;72.29;100462.69;4994639;28;20034;-92
2022/10/14 05:11:00;;;;;;;36.42;15.68;;;;;;;5.46;72.39;100401.19;5009858;28;19921;-93
2022/10/14 05:13:35;;;;;;;47.90;16.83;;;;;;;5.78;72.62;100452.84;4993869;28;20042;-94
2022/10/14 05:16:06;;;;;;;39.20;16.98;;;;;;;5.43;73.00;100391.69;5010509;28;20599;-94
2022/10/14 05:18:33;;;;;;;52.80;17.60;;;;;;;5.51;72.90;100401.25;4997289;28;20046;-94
2022/10/14 05:21:06;;;;;;;51.30;20.15;;;;;;;5.85;72.91;100431.75;4997852;28;20099;-91
2022/10/14 05:23:55;;;;;;;45.75;18.05;;;;;;;5.64;72.73;100387.31;5001083;28;20050;-92
2022/10/14 05:26:24;;;;;;;42.35;17.13;;;;;;;5.98;72.59;100428.69;4993898;28;20085;-91
2022/10/14 05:28:51;;;;;;;51.28;16.67;;;;;;;6.09;72.46;100435.03;5010368;28;20042;-91
2022/10/14 05:31:19;;;;;;;50.38;15.95;;;;;;;6.19;72.21;100453.31;5011056;28;20475;-92
2022/10/14 05:33:53;;;;;;;50.60;16.27;;;;;;;6.06;72.29;100421.97;5008432;28;20105;-88
2022/10/14 05:36:20;;;;;;;46.90;14.57;;;;;;;6.10;72.25;100415.78;5013035;28;20042;-94
2022/10/14 05:38:47;;;;;;;32.05;14.82;;;;;;;6.34;72.27;100445.34;5011568;28;20161;-91
2022/10/14 05:41:15;;;;;;;35.80;15.30;;;;;;;6.51;72.17;100458.81;4977239;28;20038;-92
2022/10/14 05:43:42;;;;;;;36.63;14.17;;;;;;;6.41;71.77;100428.84;4992294;28;20045;-93
2022/10/14 05:46:09;;;;;;;34.53;15.15;;;;;;;6.72;71.99;100474.22;4995773;28;20061;-90
2022/10/14 05:48:39;;;;;;;44.53;14.93;;;;;;;6.74;71.61;100449.50;4996771;28;20463;-93
2022/10/14 05:51:05;;;;;;;40.35;14.98;;;;;;;6.75;71.52;100451.94;4996471;28;20133;-93
2022/10/14 05:53:38;;;;;;;35.10;14.60;;;;;;;6.83;70.94;100454.19;4999089;28;20503;-93
2022/10/14 05:56:09;;;;;;;40.65;15.00;;;;;;;6.68;70.98;100416.03;4999124;28;20034;-92
2022/10/14 05:58:38;;;;;;;41.63;17.02;;;;;;;6.95;70.60;100464.06;4978678;28;20049;-94
2022/10/14 06:01:05;;;;;;;;;;;;;;;7.03;70.87;100469.03;5031035;28;20034;-93
2022/10/14 06:03:33;;;;;;;48.65;14.45;;;;;;;7.13;69.98;100477.25;4998836;28;19964;-91
2022/10/14 06:05:59;;;;;;;46.42;16.27;;;;;;;7.09;69.86;100445.41;4980281;28;20392;-92
2022/10/14 06:08:26;;;;;;;40.13;14.77;;;;;;;6.72;69.23;100384.56;4997428;28;20042;-91
2022/10/14 06:10:53;;;;;;;46.13;15.88;;;;;;;7.05;68.83;100429.63;4996909;28;20298;-91
2022/10/14 06:13:20;;;;;;;35.53;13.70;;;;;;;7.26;68.20;100465.09;4991166;28;20060;-92
2022/10/14 06:15:47;;;;;;;40.58;14.65;;;;;;;7.33;68.49;100454.78;5016815;28;20172;-92
2022/10/14 06:18:13;;;;;;;41.17;15.00;;;;;;;7.40;68.30;100457.28;5016885;28;20128;-91
2022/10/14 06:20:39;;;;;;;47.40;14.95;;;;;;;7.39;67.85;100436.59;4990279;28;20058;-92
2022/10/14 06:23:05;;;;;;;39.13;14.05;;;;;;;7.68;67.52;100470.50;5013483;28;20046;-94
2022/10/14 06:25:32;;;;;;;37.60;13.48;;;;;;;7.69;67.10;100454.97;4981370;28;20496;-94
2022/10/14 06:28:03;;;;;;;35.90;13.40;;;;;;;7.44;67.41;100410.22;4980758;28;20046;-93
2022/10/14 06:30:29;;;;;;;31.92;13.32;;;;;;;7.87;66.83;100464.56;4997758;28;20046;-90
2022/10/14 06:32:56;;;;;;;42.70;13.73;;;;;;;7.91;67.15;100462.94;5012727;28;20054;-94
2022/10/14 06:35:22;;;;;;;40.13;14.20;;;;;;;7.81;66.68;100441.94;4996882;28;20046;-95
2022/10/14 06:37:48;;;;;;;30.33;13.60;;;;;;;8.01;66.48;100473.88;5012488;28;20507;-95
2022/10/14 06:40:15;;;;;;;28.30;12.07;;;;;;;7.62;66.16;100399.97;4999448;28;20108;-93
2022/10/14 06:42:42;;;;;;;20.77;10.82;;;;;;;7.54;64.16;100398.56;4999248;28;20049;-93
2022/10/14 06:45:08;;;;;;;29.27;11.02;;;;;;;7.90;63.08;100444.97;4984493;28;20037;-90
2022/10/14 06:47:34;;;;;;;29.50;9.98;;;;;;;8.13;62.79;100465.47;5015359;28;20499;-89
2022/10/14 06:50:02;;;;;;;23.52;10.52;;;;;;;8.12;62.69;100442.88;5015985;28;20117;-90
2022/10/14 06:52:30;;;;;;;27.85;10.00;;;;;;;7.98;62.75;100398.19;4998075;28;20077;-91
2022/10/14 06:54:56;;;;;;;25.42;9.63;;;;;;;8.09;61.76;100415.34;5008209;28;20049;-89
2022/10/14 06:57:22;;;;;;;11.73;7.13;;;;;;;8.15;59.49;100442.34;5030857;28;20044;-92
2022/10/14 06:59:48;;;;;;;16.70;5.35;;;;;;;8.11;56.49;100443.13;5025230;28;20351;-93
2022/10/14 07:02:15;;;;;;;19.85;7.38;;;;;;;8.13;55.73;100443.69;4993908;28;20031;-88
2022/10/14 07:04:41;;;;;;;39.70;8.40;;;;;;;8.21;58.20;100448.59;5018360;28;20038;-87
2022/10/14 07:07:08;;;;;;;15.87;7.70;;;;;;;8.19;57.98;100434.44;5042906;28;20053;-86
2022/10/14 07:09:34;;;;;;;17.67;7.60;;;;;;;8.02;57.32;100402.00;5002749;28;20136;-88
2022/10/14 07:12:00;;;;;;;25.38;8.73;;;;;;;8.27;58.15;100435.81;5001128;28;20056;-87
2022/10/14 07:14:26;;;;;;;25.27;9.02;;;;;;;8.15;57.81;100417.81;4998033;28;20046;-89
2022/10/14 07:16:52;;;;;;;19.92;8.38;;;;;;;8.49;57.09;100469.13;4994161;28;20153;-90
2022/10/14 07:19:20;;;;;;;17.65;6.65;;;;;;;8.19;54.67;100410.75;4999006;28;20134;-88
2022/10/14 07:21:46;;;;;;;38.20;7.70;;;;;;;8.36;55.13;100429.56;5004736;28;20529;-88
2022/10/14 07:24:12;;;;;;;18.88;6.57;;;;;;;8.47;54.74;100446.75;5037753;28;20038;-88
2022/10/14 07:26:38;;;;;;;27.48;7.95;;;;;;;8.57;54.44;100465.03;5004059;28;20140;-89
2022/10/14 07:29:05;;;;;;;14.48;6.15;;;;;;;8.61;53.37;100455.22;5016416;28;20043;-89
2022/10/14 07:31:31;;;;;;;15.48;7.18;;;;;;;8.76;53.76;100468.03;5002620;28;20168;-87
2022/10/14 07:34:00;;;;;;;16.90;7.47;;;;;;;8.65;53.70;100424.44;5013070;28;20099;-90
2022/10/14 07:36:26;;;;;;;26.95;8.23;;;;;;;8.96;53.93;100464.50;4998441;28;20061;-89
2022/10/14 07:38:53;;;;;;;25.90;9.77;;;;;;;8.77;54.56;100418.69;5016777;28;20050;-88
2022/10/14 07:41:22;;;;;;;26.25;10.38;;;;;;;8.78;55.47;100408.63;4995450;28;20073;-88
2022/10/14 07:43:54;;;;;;;148.85;36.55;;;;;;;9.13;54.63;100454.91;5011468;28;20045;-91
2022/10/14 07:46:31;;;;;;;122.68;32.80;;;;;;;9.21;55.17;100448.09;5006959;28;20121;-87
2022/10/14 07:49:01;;;;;;;44.20;13.00;;;;;;;9.33;54.52;100459.50;5031389;28;20034;-87
2022/10/14 07:51:27;;;;;;;57.30;16.42;;;;;;;9.21;54.37;100436.38;5017681;28;20049;-88
2022/10/14 07:53:55;;;;;;;20.38;9.30;;;;;;;9.09;54.04;100429.28;5030145;28;20045;-87
2022/10/14 07:56:21;;;;;;;44.38;16.10;;;;;;;9.13;53.62;100419.44;5020836;28;20085;-90
2022/10/14 07:58:48;;;;;;;48.30;15.57;;;;;;;9.19;53.16;100417.53;5012987;28;20037;-88
2022/10/14 08:01:17;;;;;;;30.97;9.40;;;;;;;9.18;52.08;100421.38;5005252;28;20447;-89
2022/10/14 08:03:45;;;;;;;28.13;8.25;;;;;;;9.12;52.34;100401.47;5010139;28;20136;-88
2022/10/14 08:06:12;;;;;;;24.85;7.88;;;;;;;9.14;50.97;100412.09;5032911;28;21129;-89
2022/10/14 08:08:39;;;;;;;15.43;7.03;;;;;;;9.28;51.40;100436.91;5028824;28;20042;-90
2022/10/14 08:11:11;;;;;;;21.60;7.18;;;;;;;9.39;50.83;100449.41;5026740;28;20042;-89
2022/10/14 08:13:39;;;;;;;19.63;8.20;;;;;;;9.01;51.23;100405.31;4998408;28;20057;-90
2022/10/14 08:16:33;;;;;;;26.05;7.57;;;;;;;9.29;51.73;100452.97;5011495;28;20044;-89
2022/10/14 08:19:03;;;;;;;27.20;8.48;;;;;;;9.06;51.46;100396.28;5013999;28;20052;-90
2022/10/14 08:21:29;;;;;;;17.05;5.72;;;;;;;9.35;50.67;100437.41;5020464;28;20085;-90
2022/10/14 08:23:55;;;;;;;20.45;5.50;;;;;;;9.22;51.29;100392.44;5040257;28;20037;-90
2022/10/14 08:26:35;;;;;;;10.68;4.97;;;;;;;9.72;50.88;100447.13;5024767;28;20041;-87
2022/10/14 08:29:10;;;;;;;24.60;8.43;;;;;;;9.69;51.06;100417.63;5014488;28;20034;-90
2022/10/14 08:31:36;;;;;;;12.68;4.63;;;;;;;9.50;47.58;100390.94;4994937;28;20510;-87
2022/10/14 08:34:02;;;;;;;9.40;4.35;;;;;;;9.58;46.85;100411.41;5010188;28;20041;-90
2022/10/14 08:36:28;;;;;;;23.63;5.32;;;;;;;9.55;47.01;100385.47;5045903;28;20498;-86
2022/10/14 08:38:54;;;;;;;19.38;8.00;;;;;;;9.72;48.29;100411.63;4998878;28;20108;-90
2022/10/14 08:41:45;;;;;;;28.25;8.50;;;;;;;9.99;48.49;100436.59;4994023;28;20708;-89
2022/10/14 08:44:32;;;;;;;17.05;6.43;;;;;;;9.87;47.96;100423.28;5007078;28;20091;-90
2022/10/14 08:46:59;;;;;;;;;;;;;;;10.01;48.47;100442.59;4999386;28;20041;-90
2022/10/14 08:49:49;;;;;;;14.30;5.93;;;;;;;9.95;47.26;100441.00;4999355;28;20322;-88
2022/10/14 08:52:26;;;;;;;12.50;5.90;;;;;;;9.71;47.60;100382.69;5008959;28;20091;-87
2022/10/14 08:55:03;;;;;;;22.77;8.75;;;;;;;10.11;48.48;100426.16;5025932;28;20124;-89
2022/10/14 08:57:47;;;;;;;27.35;7.40;;;;;;;10.13;47.92;100395.81;4989922;28;20034;-89
2022/10/14 09:00:14;;;;;;;38.70;12.90;;;;;;;9.97;48.06;100378.72;5003617;28;20135;-90
2022/10/14 09:02:47;;;;;;;14.50;5.43;;;;;;;10.02;48.84;100392.31;5014279;28;20169;-89
2022/10/14 09:05:15;;;;;;;23.50;7.97;;;;;;;10.04;49.23;100389.34;5034300;28;20475;-87
2022/10/14 09:07:44;;;;;;;46.33;13.82;;;;;;;10.01;49.21;100401.63;4998598;28;20037;-88
2022/10/14 09:10:22;;;;;;;107.90;25.55;;;;;;;10.27;49.69;100421.44;5011740;28;20034;-90
2022/10/14 09:12:52;;;;;;;67.85;17.20;;;;;;;10.12;49.01;100385.97;5022676;28;20050;-88
2022/10/14 09:15:26;;;;;;;31.40;9.13;;;;;;;10.11;49.38;100367.97;5023995;28;20065;-88
2022/10/14 09:18:03;;;;;;;16.88;7.57;;;;;;;10.53;49.05;100429.47;5030633;28;20053;-88
2022/10/14 09:20:29;;;;;;;43.85;15.43;;;;;;;10.22;50.16;100360.50;5016105;28;20042;-90
2022/10/14 09:23:17;;;;;;;43.97;14.25;;;;;;;10.53;49.54;100424.00;5016035;28;20521;-89
2022/10/14 09:25:55;;;;;;;84.35;26.40;;;;;;;10.35;50.03;100392.69;5028544;28;20045;-90
2022/10/14 09:28:28;;;;;;;45.10;13.50;;;;;;;10.51;50.22;100407.88;5008840;28;20575;-90
2022/10/14 09:30:54;;;;;;;15.82;5.35;;;;;;;10.57;49.16;100389.50;5013154;28;20048;-87
2022/10/14 09:33:27;;;;;;;15.10;6.28;;;;;;;10.78;48.98;100401.06;5027466;28;20048;-89
2022/10/14 09:35:54;;;;;;;19.63;7.85;;;;;;;10.78;49.55;100381.94;5012783;28;20414;-86
2022/10/14 09:38:20;;;;;;;23.88;6.68;;;;;;;11.08;49.08;100407.34;5017726;28;20049;-89
2022/10/14 09:40:50;;;;;;;53.67;13.52;;;;;;;11.03;49.24;100389.09;4999308;28;20595;-91
2022/10/14 09:43:19;;;;;;;13.98;5.68;;;;;;;11.00;48.32;100382.25;4988109;28;20041;-88
2022/10/14 09:46:06;;;;;;;14.32;5.32;;;;;;;10.75;48.23;100372.38;5026025;28;20455;-87
2022/10/14 09:48:37;;;;;;;13.25;5.20;;;;;;;10.98;48.21;100389.13;5017290;28;20408;-89
2022/10/14 09:51:09;;;;;;;39.30;11.70;;;;;;;10.84;48.89;100369.84;5016972;28;20091;-89
2022/10/14 09:53:45;;;;;;;44.28;12.20;;;;;;;10.82;49.14;100386.53;5018289;28;20048;-88
2022/10/14 09:56:13;;;;;;;25.53;4.97;;;;;;;10.78;48.95;100384.66;5039704;28;20402;-89
2022/10/14 09:58:52;;;;;;;60.03;15.65;;;;;;;10.83;50.11;100381.91;5009748;28;20038;-88
2022/10/14 10:01:23;;;;;;;15.23;5.63;;;;;;;10.88;49.07;100379.09;5018721;28;20045;-88
2022/10/14 10:03:50;;;;;;;10.20;4.35;;;;;;;10.99;49.15;100398.94;5020218;28;20124;-88
2022/10/14 10:06:22;;;;;;;11.18;4.20;;;;;;;10.72;49.39;100377.59;5022084;28;20033;-90
2022/10/14 10:08:57;;;;;;;10.70;4.18;;;;;;;10.90;49.51;100404.25;5046195;28;20045;-90
2022/10/14 10:11:34;;;;;;;16.52;5.43;;;;;;;10.60;51.25;100355.31;5017144;28;20049;-89
2022/10/14 10:14:16;;;;;;;27.85;8.52;;;;;;;10.63;50.97;100373.84;4997826;28;20037;-90
2022/10/14 10:16:43;;;;;;;19.30;5.07;;;;;;;10.75;51.24;100366.09;4998318;28;20037;-91
2022/10/14 10:19:27;;;;;;;8.77;4.28;;;;;;;10.84;50.84;100389.00;5015196;28;20038;-90
2022/10/14 10:22:32;;;;;;;23.00;5.82;;;;;;;10.89;52.31;100379.91;5015958;28;20049;-89
2022/10/14 10:25:05;;;;;;;8.32;4.25;;;;;;;11.19;51.97;100408.88;5021888;28;20118;-89
2022/10/14 10:27:44;;;;;;;12.20;5.72;;;;;;;11.15;51.01;100375.00;5017661;28;20041;-89
2022/10/14 10:30:13;;;;;;;10.82;5.00;;;;;;;11.34;50.96;100405.97;5014788;28;20042;-90
2022/10/14 10:33:20;;;;;;;15.45;6.57;;;;;;;11.38;50.85;100398.81;4994637;28;20088;-88
2022/10/14 10:36:07;;;;;;;8.23;3.83;;;;;;;11.21;49.65;100412.16;5015849;28;20033;-91
2022/10/14 10:38:44;;;;;;;13.50;4.70;;;;;;;11.03;49.98;100381.69;5014634;28;20061;-88
2022/10/14 10:41:44;;;;;;;20.20;5.90;;;;;;;11.25;51.03;100408.53;5000028;28;20459;-90
2022/10/14 10:44:24;;;;;;;18.60;6.53;;;;;;;10.95;51.04;100349.47;5034543;28;20544;-90
2022/10/14 10:47:05;;;;;;;12.95;3.55;;;;;;;11.34;49.12;100400.50;5004311;28;20065;-91
2022/10/14 10:50:08;;;;;;;9.88;3.75;;;;;;;11.33;50.08;100389.84;4997571;28;20038;-89
2022/10/14 10:52:51;;;;;;;17.48;5.05;;;;;;;11.12;50.86;100368.16;4975614;28;20042;-89
2022/10/14 10:55:27;;;;;;;9.30;3.85;;;;;;;10.91;50.73;100358.56;5014087;28;20055;-88
2022/10/14 10:58:13;;;;;;;20.60;4.57;;;;;;;10.93;50.59;100395.47;5014145;28;20573;-88
2022/10/14 11:00:51;;;;;;;14.45;5.35;;;;;;;10.87;50.63;100380.22;4997840;28;20132;-86
2022/10/14 11:03:28;;;;;;;27.77;8.13;;;;;;;10.66;50.39;100354.16;5013184;28;20069;-88
2022/10/14 11:05:54;;;;;;;40.58;10.88;;;;;;;11.01;50.78;100397.56;5014299;28;20096;-90
2022/10/14 11:14:39;;;;;;;9.52;3.72;;;;;;;11.38;49.65;100379.63;5011867;28;20049;-87
2022/10/14 11:17:11;;;;;;;11.25;3.58;;;;;;;11.50;49.90;100382.78;4996562;28;20542;-87
2022/10/14 11:20:08;;;;;;;12.48;4.97;;;;;;;11.38;49.36;100319.41;4995289;28;20045;-87
2022/10/14 11:22:59;;;;;;;36.33;11.20;;;;;;;11.67;49.94;100365.06;4996827;28;20046;-93
2022/10/14 11:26:03;;;;;;;21.00;6.25;;;;;;;11.73;49.55;100358.41;5013805;28;20510;-87
2022/10/14 11:28:50;;;;;;;13.23;4.75;;;;;;;11.93;49.15;100371.03;5010576;28;20515;-90
2022/10/14 11:31:32;;;;;;;50.20;8.02;;;;;;;12.02;49.12;100365.69;5029145;28;20526;-88
2022/10/14 11:34:04;;;;;;;17.83;5.05;;;;;;;11.86;48.74;100321.28;5013047;28;20515;-87
2022/10/14 11:37:05;;;;;;;27.92;5.40;;;;;;;12.36;48.81;100376.41;5012769;28;20077;-86
2022/10/14 11:39:48;;;;;;;26.38;4.35;;;;;;;12.09;48.90;100363.41;5029215;28;20399;-90
2022/10/14 11:42:38;;;;;;;10.27;4.43;;;;;;;11.95;47.73;100379.75;5023868;28;20042;-88
2022/10/14 11:45:04;;;;;;;18.02;3.90;;;;;;;11.86;46.80;100374.13;5031108;28;20433;-86
2022/10/14 11:47:34;;;;;;;10.68;4.13;;;;;;;11.17;48.20;100296.97;5013266;28;20061;-90
2022/10/14 11:50:28;;;;;;;13.90;4.20;;;;;;;11.59;48.43;100368.44;4995700;28;20046;-87
2022/10/14 11:53:01;;;;;;;13.70;4.93;;;;;;;11.63;48.20;100356.59;5012391;28;20069;-86
2022/10/14 11:55:33;;;;;;;11.98;3.75;;;;;;;11.84;47.53;100364.53;5028466;28;20072;-86
2022/10/14 11:58:24;;;;;;;18.02;6.10;;;;;;;11.96;48.47;100373.19;5013668;28;20084;-87